Time;durP1;ratioP1;P1;durP2;ratioP2;P2;SDS_P1;SDS_P2;PMS_P1;PMS_P2;Temp;Humidity;BMP_temperature;BMP_pressure;BME280_temperature;BME280_humidity;BME280_pressure;Samples;Min_cycle;Max_cycle;Signal;HPM_P1;HPM_P2
2023/09/04 00:00:17;;;;;;;;;;;;;;;14.16;74.95;102232.45;105790;1273;61297;-82
2023/09/04 00:03:04;;;;;;;;;;;;;;;14.15;75.19;102237.53;105713;1283;125028;-83
2023/09/04 00:05:34;;;;;;;;;;;;;;;14.12;75.27;102240.95;105685;1273;61266;-83
2023/09/04 00:08:01;;;;;;;;;;;;;;;14.10;75.37;102239.83;105766;1273;61389;-83
2023/09/04 00:10:27;;;;;;;;;;;;;;;14.09;75.42;102240.30;105709;1272;124793;-83
2023/09/04 00:12:54;;;;;;;;;;;;;;;14.06;75.41;102243.21;105872;1275;61489;-83
2023/09/04 00:15:20;;;;;;;;;;;;;;;14.04;75.55;102247.56;105749;1281;124965;-84
2023/09/04 00:17:48;;;;;;;;;;;;;;;14.02;75.76;102246.42;105874;1270;61405;-84
2023/09/04 00:20:14;;;;;;;;;;;;;;;14.00;75.77;102250.42;105751;1273;61293;-83
2023/09/04 00:22:41;;;;;;;;;;;;;;;13.98;75.91;102245.59;105696;1273;125544;-85
2023/09/04 00:25:07;;;;;;;;;;;;;;;13.97;75.97;102244.66;105692;1274;61415;-84
2023/09/04 00:27:34;;;;;;;;;;;;;;;13.96;76.13;102242.85;105587;1272;124987;-84
2023/09/04 00:30:00;;;;;;;;;;;;;;;13.98;76.48;102242.24;105847;1270;61274;-84
2023/09/04 00:32:27;;;;;;;;;;;;;;;14.02;76.70;102243.80;105636;1270;124966;-83
2023/09/04 00:34:53;;;;;;;;;;;;;;;14.07;76.73;102243.60;105682;1269;61351;-83
2023/09/04 00:37:20;;;;;;;;;;;;;;;14.13;76.89;102239.58;105723;1273;59658;-84
2023/09/04 00:39:46;;;;;;;;;;;;;;;14.19;77.07;102236.59;105627;1270;125549;-84
2023/09/04 00:42:15;;;;;;;;;;;;;;;14.25;77.09;102236.98;105524;1273;61249;-84
2023/09/04 00:44:47;;;;;;;;;;;;;;;14.32;77.20;102248.14;105609;1270;125383;-84
2023/09/04 00:47:14;;;;;;;;;;;;;;;14.36;77.22;102255.20;105670;1269;75189;-84
2023/09/04 00:49:41;;;;;;;;;;;;;;;14.41;77.28;102256.23;105443;1270;66351;-84
2023/09/04 00:52:08;;;;;;;;;;;;;;;14.47;77.38;102262.60;105563;1271;125011;-84
2023/09/04 00:54:35;;;;;;;;;;;;;;;14.52;77.37;102272.67;105671;1269;60342;-82
2023/09/04 00:57:03;;;;;;;;;;;;;;;14.57;77.49;102275.34;105729;1270;125455;-83
2023/09/04 00:59:30;;;;;;;;;;;;;;;14.62;77.55;102274.59;105791;1270;73322;-83
2023/09/04 01:01:57;;;;;;;;;;;;;;;14.65;77.56;102268.17;105682;1271;65980;-83
2023/09/04 01:04:23;;;;;;;;;;;;;;;14.69;77.58;102266.17;105395;1273;124962;-83
2023/09/04 01:06:50;;;;;;;;;;;;;;;14.71;77.59;102271.58;105773;1273;61256;-83
2023/09/04 01:09:17;;;;;;;;;;;;;;;14.75;77.66;102270.26;105597;1270;125035;-76
2023/09/04 01:11:47;;;;;;;;;;;;;;;14.78;77.70;102268.97;105119;1271;73602;-82
2023/09/04 01:14:13;;;;;;;;;;;;;;;14.82;77.71;102273.85;105818;1273;67441;-81
2023/09/04 01:16:40;;;;;;;;;;;;;;;14.86;77.76;102273.45;105384;1270;124969;-83
2023/09/04 01:19:07;;;;;;;;;;;;;;;14.90;77.83;102278.33;105764;1270;61365;-84
2023/09/04 01:21:37;;;;;;;;;;;;;;;14.92;77.72;102276.28;105531;1270;124907;-83
2023/09/04 01:24:03;;;;;;;;;;;;;;;14.94;77.90;102273.34;105795;1273;74629;-83
2023/09/04 01:26:30;;;;;;;;;;;;;;;14.96;77.83;102265.10;105628;1277;125664;-83
2023/09/04 01:29:04;;;;;;;;;;;;;;;14.97;77.96;102257.70;105644;1270;61170;-83
2023/09/04 01:31:30;;;;;;;;;;;;;;;14.98;77.88;102250.30;105521;1276;61404;-83
2023/09/04 01:33:59;;;;;;;;;;;;;;;15.00;77.99;102243.11;105523;1270;125028;-83
2023/09/04 01:36:26;;;;;;;;;;;;;;;15.03;78.13;102241.98;105655;1269;74432;-83
2023/09/04 01:38:52;;;;;;;;;;;;;;;15.06;78.17;102244.36;105568;1270;125332;-83
2023/09/04 01:41:19;;;;;;;;;;;;;;;15.09;78.22;102238.64;105793;1269;73321;-81
2023/09/04 01:43:45;;;;;;;;;;;;;;;15.12;78.29;102234.30;105822;1270;59372;-82
2023/09/04 01:46:12;;;;;;;;;;;;;;;15.16;78.27;102233.52;105731;1270;126405;-83
2023/09/04 01:48:38;;;;;;;;;;;;;;;15.20;78.40;102231.67;105608;1270;74790;-83
2023/09/04 01:51:05;;;;;;;;;;;;;;;15.23;78.37;102241.17;105708;1274;125078;-82
2023/09/04 01:53:31;;;;;;;;;;;;;;;15.26;78.48;102250.98;105713;1284;59247;-83
2023/09/04 01:55:59;;;;;;;;;;;;;;;15.30;78.51;102253.40;105595;1274;61384;-83
2023/09/04 01:58:27;;;;;;;;;;;;;;;15.33;78.45;102247.48;105788;1273;124987;-83
2023/09/04 02:00:53;;;;;;;;;;;;;;;15.36;78.40;102250.38;105761;1273;74048;-84
2023/09/04 02:03:20;;;;;;;;;;;;;;;15.39;78.43;102261.10;105655;1268;125417;-84
2023/09/04 02:05:46;;;;;;;;;;;;;;;15.42;78.41;102265.06;105635;1270;72741;-85
2023/09/04 02:08:13;;;;;;;;;;;;;;;15.44;78.51;102269.56;105720;1269;61273;-85
2023/09/04 02:10:39;;;;;;;;;;;;;;;15.46;78.43;102273.85;105642;1270;124785;-82
2023/09/04 02:13:06;;;;;;;;;;;;;;;15.48;78.47;102275.32;105810;1270;61284;-88
2023/09/04 02:15:34;;;;;;;;;;;;;;;15.49;78.50;102281.20;105441;1270;123879;-91
2023/09/04 02:18:02;;;;;;;;;;;;;;;15.51;78.55;102292.59;105678;1276;72726;-92
2023/09/04 02:20:29;;;;;;;;;;;;;;;15.53;78.42;102291.57;105745;1270;125164;-92
2023/09/04 02:22:56;;;;;;;;;;;;;;;15.53;78.50;102288.57;105645;1273;61371;-91
2023/09/04 02:25:23;;;;;;;;;;;;;;;15.56;78.52;102281.92;105713;1271;73645;-90
2023/09/04 02:27:50;;;;;;;;;;;;;;;15.59;78.55;102284.33;105527;1276;125162;-91
2023/09/04 02:30:17;;;;;;;;;;;;;;;15.63;78.57;102288.49;105699;1270;72747;-90
2023/09/04 02:32:44;;;;;;;;;;;;;;;15.64;78.55;102289.41;105521;1267;125148;-91
2023/09/04 02:35:10;;;;;;;;;;;;;;;15.65;78.51;102294.05;105774;1267;61336;-90
2023/09/04 02:37:37;;;;;;;;;;;;;;;15.66;78.45;102302.91;105662;1270;74699;-90
2023/09/04 02:40:06;;;;;;;;;;;;;;;15.67;78.49;102303.98;105537;1270;124819;-90
2023/09/04 02:42:33;;;;;;;;;;;;;;;15.67;78.55;102295.18;105616;1270;70897;-91
2023/09/04 02:45:04;;;;;;;;;;;;;;;15.68;78.57;102295.37;105608;1270;125031;-91
2023/09/04 02:47:31;;;;;;;;;;;;;;;15.69;78.66;102290.77;105683;1273;61391;-91
2023/09/04 02:49:57;;;;;;;;;;;;;;;15.71;78.61;102285.70;105426;1270;73112;-91
2023/09/04 02:52:24;;;;;;;;;;;;;;;15.71;78.64;102278.64;105624;1270;124825;-92
2023/09/04 02:54:51;;;;;;;;;;;;;;;15.70;78.66;102279.67;105768;1267;72672;-92
2023/09/04 02:57:17;;;;;;;;;;;;;;;15.70;78.70;102281.80;105402;1276;125181;-92
2023/09/04 02:59:44;;;;;;;;;;;;;;;15.71;78.69;102287.66;105748;1269;61272;-92
2023/09/04 03:02:10;;;;;;;;;;;;;;;15.72;78.68;102281.86;105671;1268;73429;-91
2023/09/04 03:04:37;;;;;;;;;;;;;;;15.72;78.69;102283.44;105444;1272;126519;-89
2023/09/04 03:07:03;;;;;;;;;;;;;;;15.72;78.76;102276.55;105536;1273;72530;-89
2023/09/04 03:09:31;;;;;;;;;;;;;;;15.71;78.73;102263.05;105429;1270;126165;-89
2023/09/04 03:11:58;;;;;;;;;;;;;;;15.70;78.78;102261.96;105704;1271;61425;-90
2023/09/04 03:14:25;;;;;;;;;;;;;;;15.68;78.78;102264.40;105777;1272;73419;-91
2023/09/04 03:16:52;;;;;;;;;;;;;;;15.66;78.73;102265.03;105577;1270;124768;-91
2023/09/04 03:19:19;;;;;;;;;;;;;;;15.65;78.89;102260.76;105680;1268;71424;-91
2023/09/04 03:21:48;;;;;;;;;;;;;;;15.63;78.98;102255.77;105574;1268;125029;-92
2023/09/04 03:24:15;;;;;;;;;;;;;;;15.62;79.01;102251.14;105663;1270;61300;-90
2023/09/04 03:26:42;;;;;;;;;;;;;;;15.61;78.99;102245.77;105503;1270;125219;-90
2023/09/04 03:29:08;;;;;;;;;;;;;;;15.59;79.11;102234.41;105533;1279;66514;-91
2023/09/04 03:31:35;;;;;;;;;;;;;;;15.58;79.08;102230.31;105842;1268;72781;-91
2023/09/04 03:34:01;;;;;;;;;;;;;;;15.57;79.20;102233.99;105736;1270;125297;-91
2023/09/04 03:36:29;;;;;;;;;;;;;;;15.57;79.22;102232.40;105947;1270;61230;-92
2023/09/04 03:38:55;;;;;;;;;;;;;;;15.54;79.17;102232.33;105567;1270;125193;-92
2023/09/04 03:41:22;;;;;;;;;;;;;;;15.54;79.33;102244.87;105476;1267;65151;-90
2023/09/04 03:43:49;;;;;;;;;;;;;;;15.53;79.45;102250.35;105747;1269;71408;-90
2023/09/04 03:46:16;;;;;;;;;;;;;;;15.55;79.51;102261.20;105646;1271;125757;-87
2023/09/04 03:48:42;;;;;;;;;;;;;;;15.55;79.58;102271.48;105518;1276;61173;-87
2023/09/04 03:51:09;;;;;;;;;;;;;;;15.57;79.75;102267.45;105732;1270;125275;-89
2023/09/04 03:53:36;;;;;;;;;;;;;;;15.60;79.85;102264.15;106067;1268;64913;-91
2023/09/04 03:56:06;;;;;;;;;;;;;;;15.61;79.80;102265.45;105982;1270;72092;-89
2023/09/04 03:58:32;;;;;;;;;;;;;;;15.64;79.83;102269.77;106078;1270;124920;-91
2023/09/04 04:00:59;;;;;;;;;;;;;;;15.66;79.77;102272.30;105928;1271;61114;-89
2023/09/04 04:03:26;;;;;;;;;;;;;;;15.67;79.84;102268.09;106046;1269;125753;-86
2023/09/04 04:05:52;;;;;;;;;;;;;;;15.69;79.87;102262.13;106099;1270;65041;-91
2023/09/04 04:08:19;;;;;;;;;;;;;;;15.71;79.81;102262.71;105835;1270;72707;-84
2023/09/04 04:10:45;;;;;;;;;;;;;;;15.74;79.81;102262.13;105802;1270;124670;-85
2023/09/04 04:13:12;;;;;;;;;;;;;;;15.77;79.81;102258.50;105738;1268;61317;-89
2023/09/04 04:15:38;;;;;;;;;;;;;;;15.82;79.91;102264.98;105715;1270;124877;-89
2023/09/04 04:18:07;;;;;;;;;;;;;;;15.85;79.76;102267.40;105810;1270;61767;-92
2023/09/04 04:20:34;;;;;;;;;;;;;;;15.89;79.83;102268.54;105434;1273;125253;-89
2023/09/04 04:23:01;;;;;;;;;;;;;;;15.93;79.87;102275.91;105629;1270;61334;-89
2023/09/04 04:25:28;;;;;;;;;;;;;;;15.97;79.76;102277.27;105941;1270;61293;-88
2023/09/04 04:27:54;;;;;;;;;;;;;;;16.00;79.69;102284.80;105636;1270;124986;-91
2023/09/04 04:30:21;;;;;;;;;;;;;;;16.03;79.74;102293.17;105672;1273;65247;-90
2023/09/04 04:32:48;;;;;;;;;;;;;;;16.06;79.70;102295.56;105574;1275;125027;-89
2023/09/04 04:35:15;;;;;;;;;;;;;;;16.09;79.65;102298.84;105498;1270;61387;-81
2023/09/04 04:37:41;;;;;;;;;;;;;;;16.12;79.62;102292.55;105790;1270;61397;-81
2023/09/04 04:40:08;;;;;;;;;;;;;;;16.15;79.67;102287.65;105629;1270;124798;-82
2023/09/04 04:42:34;;;;;;;;;;;;;;;16.18;79.65;102289.52;105662;1270;66095;-83
2023/09/04 04:45:02;;;;;;;;;;;;;;;16.22;79.69;102301.66;105769;1268;125508;-84
2023/09/04 04:47:28;;;;;;;;;;;;;;;16.26;79.66;102297.69;105660;1273;61342;-84
2023/09/04 04:49:55;;;;;;;;;;;;;;;16.29;79.62;102300.80;105804;1270;60472;-85
2023/09/04 04:52:22;;;;;;;;;;;;;;;16.34;79.59;102306.05;105728;1270;124840;-86
2023/09/04 04:54:48;;;;;;;;;;;;;;;16.37;79.52;102308.77;105626;1270;61160;-87
2023/09/04 04:57:16;;;;;;;;;;;;;;;16.41;79.67;102307.48;105853;1270;124997;-85
2023/09/04 04:59:42;;;;;;;;;;;;;;;16.45;79.49;102314.86;105782;1267;61393;-86
2023/09/04 05:02:09;;;;;;;;;;;;;;;16.48;79.37;102322.91;105864;1270;61299;-85
2023/09/04 05:04:35;;;;;;;;;;;;;;;16.53;79.42;102328.34;105780;1270;125029;-82
2023/09/04 05:07:02;;;;;;;;;;;;;;;16.58;79.41;102328.11;105898;1270;61461;-80
2023/09/04 05:09:28;;;;;;;;;;;;;;;16.63;79.22;102330.00;105702;1270;125032;-82
2023/09/04 05:11:55;;;;;;;;;;;;;;;16.68;79.32;102328.54;105809;1271;59310;-82
2023/09/04 05:14:21;;;;;;;;;;;;;;;16.74;79.17;102320.17;105880;1273;59373;-82
2023/09/04 05:16:48;;;;;;;;;;;;;;;16.80;79.06;102320.66;105789;1270;124809;-83
2023/09/04 05:19:15;;;;;;;;;;;;;;;16.84;78.96;102319.23;105770;1270;66109;-82
2023/09/04 05:21:42;;;;;;;;;;;;;;;16.90;78.89;102322.36;105671;1270;127059;-83
2023/09/04 05:24:08;;;;;;;;;;;;;;;16.98;78.82;102328.39;105657;1269;59372;-83
2023/09/04 05:26:35;;;;;;;;;;;;;;;17.06;78.76;102330.91;105617;1271;125041;-83
2023/09/04 05:29:01;;;;;;;;;;;;;;;17.17;78.73;102327.98;105713;1270;74861;-84
2023/09/04 05:31:28;;;;;;;;;;;;;;;17.28;78.57;102330.36;105851;1272;61333;-83
2023/09/04 05:33:54;;;;;;;;;;;;;;;17.39;78.37;102332.89;105629;1270;125210;-79
2023/09/04 05:36:21;;;;;;;;;;;;;;;17.50;78.40;102338.11;105890;1270;61166;-82
2023/09/04 05:38:47;;;;;;;;;;;;;;;17.59;78.09;102342.38;105707;1270;125221;-82
2023/09/04 05:41:14;;;;;;;;;;;;;;;17.67;77.92;102344.87;105806;1270;61282;-84
2023/09/04 05:43:40;;;;;;;;;;;;;;;17.74;77.71;102346.08;105769;1269;64835;-82
2023/09/04 05:46:07;;;;;;;;;;;;;;;17.84;77.68;102348.79;105745;1271;125846;-85
2023/09/04 05:48:34;;;;;;;;;;;;;;;17.97;77.52;102352.42;105843;1273;61305;-81
2023/09/04 05:51:18;;;;;;;;;;;;;;;18.06;77.31;102356.88;105859;1269;125028;-81
2023/09/04 05:54:02;;;;;;;;;;;;;;;18.19;77.08;102361.05;107810;1270;73220;-82
2023/09/04 05:56:29;;;;;;;;;;;;;;;18.23;76.70;102362.71;108012;1268;125457;-81
2023/09/04 05:58:56;;;;;;;;;;;;;;;18.30;76.58;102360.53;108073;1269;72689;-82
2023/09/04 06:01:24;;;;;;;;;;;;;;;18.42;76.51;102360.59;108062;1269;59598;-81
2023/09/04 06:03:50;;;;;;;;;;;;;;;18.56;76.46;102364.59;108024;1269;125802;-83
2023/09/04 06:06:17;;;;;;;;;;;;;;;18.68;76.10;102364.23;108116;1269;75155;-79
2023/09/04 06:08:43;;;;;;;;;;;;;;;18.75;75.88;102365.61;106961;1269;124736;-87
2023/09/04 06:11:10;;;;;;;;;;;;;;;18.82;75.65;102368.23;105851;1276;72499;-84
2023/09/04 06:13:36;;;;;;;;;;;;;;;18.90;75.50;102367.66;105812;1270;60597;-88
2023/09/04 06:16:03;;;;;;;;;;;;;;;18.99;75.37;102368.36;105740;1269;125251;-80
2023/09/04 06:18:30;;;;;;;;;;;;;;;19.13;75.30;102361.44;105845;1270;74844;-77
2023/09/04 06:20:56;;;;;;;;;;;;;;;19.27;75.19;102363.27;105608;1267;125335;-78
2023/09/04 06:23:23;;;;;;;;;;;;;;;19.41;74.93;102363.11;105734;1271;72737;-88
2023/09/04 06:25:50;;;;;;;;;;;;;;;19.54;74.68;102366.84;105897;1270;61410;-87
2023/09/04 06:28:16;;;;;;;;;;;;;;;19.63;74.50;102366.27;105666;1269;124159;-84
2023/09/04 06:30:44;;;;;;;;;;;;;;;19.76;74.28;102365.56;105818;1271;74111;-83
2023/09/04 06:33:11;;;;;;;;;;;;;;;19.86;73.94;102371.39;105779;1269;124308;-84
2023/09/04 06:35:37;;;;;;;;;;;;;;;19.99;73.76;102364.80;105695;1270;72517;-80
2023/09/04 06:38:05;;;;;;;;;;;;;;;20.14;73.35;102366.56;105804;1270;61618;-81
2023/09/04 06:40:32;;;;;;;;;;;;;;;20.26;72.92;102361.52;105644;1269;124319;-80
2023/09/04 06:42:58;;;;;;;;;;;;;;;20.36;72.58;102358.23;105712;1273;72669;-81
2023/09/04 06:45:25;;;;;;;;;;;;;;;20.43;72.18;102355.27;105677;1273;124230;-80
2023/09/04 06:47:52;;;;;;;;;;;;;;;20.50;71.82;102355.34;105850;1270;72354;-80
2023/09/04 06:50:18;;;;;;;;;;;;;;;20.54;71.66;102360.55;106033;1272;61359;-80
2023/09/04 06:52:45;;;;;;;;;;;;;;;20.62;71.24;102367.79;106016;1270;124682;-80
2023/09/04 06:55:11;;;;;;;;;;;;;;;20.62;70.74;102366.36;105963;1268;61257;-80
2023/09/04 06:57:38;;;;;;;;;;;;;;;20.65;70.56;102369.42;105682;1270;124718;-82
2023/09/04 07:00:08;;;;;;;;;;;;;;;20.65;70.27;102379.77;105843;1267;72744;-80
2023/09/04 07:02:35;;;;;;;;;;;;;;;20.60;70.01;102378.48;105725;1269;125176;-80
2023/09/04 07:05:03;;;;;;;;;;;;;;;20.63;70.03;102379.39;105944;1270;61335;-80
2023/09/04 07:07:31;;;;;;;;;;;;;;;20.65;69.52;102384.95;105544;1276;74750;-80
2023/09/04 07:09:57;;;;;;;;;;;;;;;20.60;69.17;102380.59;105788;1273;124879;-80
2023/09/04 07:12:24;;;;;;;;;;;;;;;20.53;69.10;102385.52;105821;1270;71982;-82
2023/09/04 07:14:50;;;;;;;;;;;;;;;20.51;68.93;102382.10;105713;1269;125084;-82
2023/09/04 07:17:17;;;;;;;;;;;;;;;20.52;68.89;102381.05;105658;1272;61227;-80
2023/09/04 07:19:43;;;;;;;;;;;;;;;20.62;68.81;102379.91;105890;1270;73320;-82
2023/09/04 07:22:10;;;;;;;;;;;;;;;20.74;68.90;102379.13;105780;1270;124354;-81
2023/09/04 07:24:37;;;;;;;;;;;;;;;20.84;68.61;102381.36;105778;1271;72750;-81
2023/09/04 07:27:03;;;;;;;;;;;;;;;20.92;68.41;102381.60;105638;1270;125021;-80
2023/09/04 07:29:30;;;;;;;;;;;;;;;21.00;68.25;102383.64;105795;1270;61768;-81
2023/09/04 07:31:57;;;;;;;;;;;;;;;21.05;67.87;102386.17;105753;1270;61403;-82
2023/09/04 07:34:24;;;;;;;;;;;;;;;21.11;67.86;102384.97;105713;1269;124307;-80
2023/09/04 07:36:52;;;;;;;;;;;;;;;21.18;67.66;102384.83;105866;1270;72611;-78
2023/09/04 07:39:18;;;;;;;;;;;;;;;21.24;67.54;102383.80;105736;1270;124281;-77
2023/09/04 07:41:45;;;;;;;;;;;;;;;21.33;67.41;102383.16;105776;1270;61192;-82
2023/09/04 07:44:11;;;;;;;;;;;;;;;21.44;67.44;102385.55;105629;1270;194114;-82
2023/09/04 07:46:39;;;;;;;;;;;;;;;21.57;67.06;102380.11;105644;1270;124593;-81
2023/09/04 07:49:05;;;;;;;;;;;;;;;21.61;66.84;102381.04;105800;1270;72895;-81
2023/09/04 07:51:32;;;;;;;;;;;;;;;21.62;66.52;102384.60;105699;1269;124174;-82
2023/09/04 07:53:58;;;;;;;;;;;;;;;21.63;66.37;102383.00;105599;1274;61333;-83
2023/09/04 07:56:25;;;;;;;;;;;;;;;21.67;66.41;102381.95;105635;1275;73882;-80
2023/09/04 07:58:51;;;;;;;;;;;;;;;21.72;66.00;102382.16;105700;1268;123713;-83
2023/09/04 08:04:42;;;;;;;;;;;;;;;21.85;65.58;102373.27;106443;1270;124125;-82
2023/09/04 08:07:08;;;;;;;;;;;;;;;21.98;65.34;102380.30;105736;1270;61740;-83
2023/09/04 08:09:40;;;;;;;;;;;;;;;22.08;65.11;102381.58;105491;1270;125267;-81
2023/09/04 08:12:25;;;;;;;;;;;;;;;22.24;64.83;102380.74;105813;1269;65069;-81
2023/09/04 08:14:52;;;;;;;;;;;;;;;22.43;64.84;102375.44;105539;1270;125967;-81
2023/09/04 08:17:28;;;;;;;;;;;;;;;22.64;64.47;102369.20;105796;1269;59223;-81
2023/09/04 08:19:54;;;;;;;;;;;;;;;22.77;64.33;102367.59;105615;1270;61307;-81
2023/09/04 08:22:21;;;;;;;;;;;;;;;22.93;64.11;102365.80;105563;1273;124242;-80
2023/09/04 08:24:50;;;;;;;;;;;;;;;23.02;63.75;102357.75;105755;1270;65141;-82
2023/09/04 08:27:22;;;;;;;;;;;;;;;23.12;63.39;102361.51;105564;1270;124346;-83
2023/09/04 08:29:50;;;;;;;;;;;;;;;23.19;63.48;102361.50;105635;1269;59876;-82
2023/09/04 08:32:16;;;;;;;;;;;;;;;23.30;63.20;102360.21;105807;1270;61192;-82
2023/09/04 08:34:43;;;;;;;;;;;;;;;23.41;62.99;102361.64;105481;1276;124317;-81
2023/09/04 08:37:09;;;;;;;;;;;;;;;23.58;62.90;102360.49;105738;1270;66070;-83
2023/09/04 08:39:36;;;;;;;;;;;;;;;23.77;62.88;102361.52;105795;1270;124655;-83
2023/09/04 08:42:07;;;;;;;;;;;;;;;23.90;62.31;102363.82;105795;1268;61333;-82
2023/09/04 08:44:34;;;;;;;;;;;;;;;23.96;61.93;102368.45;105762;1272;124295;-81
2023/09/04 08:47:01;;;;;;;;;;;;;;;24.04;61.80;102366.79;105874;1270;74568;-81
2023/09/04 08:49:27;;;;;;;;;;;;;;;24.14;61.62;102367.10;105739;1270;65084;-83
2023/09/04 08:51:55;;;;;;;;;;;;;;;24.26;61.51;102369.35;105528;1268;124806;-81
2023/09/04 08:54:22;;;;;;;;;;;;;;;24.27;60.75;102369.35;105794;1270;61251;-81
2023/09/04 08:56:48;;;;;;;;;;;;;;;24.25;60.50;102372.41;105770;1273;126393;-81
2023/09/04 08:59:14;;;;;;;;;;;;;;;24.17;60.20;102376.23;105790;1267;73870;-80
2023/09/04 09:01:43;;;;;;;;;;;;;;;23.99;60.01;102374.70;105823;1270;66034;-81
2023/09/04 09:04:10;;;;;;;;;;;;;;;23.74;59.80;102366.91;105597;1270;124270;-83
2023/09/04 09:06:36;;;;;;;;;;;;;;;23.61;60.46;102362.99;105607;1271;59693;-83
2023/09/04 09:09:03;;;;;;;;;;;;;;;23.68;60.75;102361.91;105672;1270;124563;-80
2023/09/04 09:11:30;;;;;;;;;;;;;;;23.76;60.64;102360.62;105736;1269;73443;-83
2023/09/04 09:13:57;;;;;;;;;;;;;;;23.88;60.54;102362.40;105745;1270;65015;-88
2023/09/04 09:16:24;;;;;;;;;;;;;;;23.88;60.30;102368.48;105643;1270;124282;-83
2023/09/04 09:18:52;;;;;;;;;;;;;;;23.78;60.02;102365.46;105878;1270;61367;-81
2023/09/04 09:21:25;;;;;;;;;;;;;;;23.65;59.84;102367.64;105656;1276;125601;-82
2023/09/04 09:24:08;;;;;;;;;;;;;;;23.51;60.09;102365.00;106167;1273;73998;-83
2023/09/04 09:26:35;;;;;;;;;;;;;;;23.34;59.89;102363.45;105972;1270;125295;-83
2023/09/04 09:29:07;;;;;;;;;;;;;;;23.19;59.85;102366.52;105811;1270;73269;-81
2023/09/04 09:31:36;;;;;;;;;;;;;;;23.05;59.87;102364.39;106242;1269;61382;-81
2023/09/04 09:34:03;;;;;;;;;;;;;;;22.97;59.71;102367.77;105824;1276;124290;-82
2023/09/04 09:36:29;;;;;;;;;;;;;;;22.84;59.27;102368.67;106194;1269;72452;-82
2023/09/04 09:38:58;;;;;;;;;;;;;;;22.71;59.03;102368.66;106114;1272;125334;-82
2023/09/04 09:41:25;;;;;;;;;;;;;;;22.59;58.69;102365.08;106116;1270;71569;-81
2023/09/04 09:43:52;;;;;;;;;;;;;;;22.51;58.63;102366.50;106229;1273;61736;-82
2023/09/04 09:46:18;;;;;;;;;;;;;;;22.46;58.86;102362.73;106071;1269;124123;-83
2023/09/04 09:48:45;;;;;;;;;;;;;;;22.49;59.11;102360.42;106148;1271;73852;-81
2023/09/04 09:51:12;;;;;;;;;;;;;;;22.53;58.95;102353.63;105831;1270;124804;-84
2023/09/04 09:53:51;;;;;;;;;;;;;;;22.60;59.08;102358.64;105751;1270;73325;-83
2023/09/04 09:56:18;;;;;;;;;;;;;;;22.67;59.04;102357.94;105938;1270;61300;-83
2023/09/04 09:58:54;;;;;;;;;;;;;;;22.77;59.13;102360.98;105457;1270;124185;-82
2023/09/04 10:01:24;;;;;;;;;;;;;;;22.95;59.02;102356.14;105773;1270;73248;-81
2023/09/04 10:03:50;;;;;;;;;;;;;;;23.20;59.18;102363.83;106430;1269;124279;-82
2023/09/04 10:06:35;;;;;;;;;;;;;;;23.40;58.73;102364.52;105747;1269;61179;-82
2023/09/04 10:09:19;;;;;;;;;;;;;;;23.55;58.09;102361.23;105794;1270;124465;-83
2023/09/04 10:12:02;;;;;;;;;;;;;;;23.60;57.79;102364.79;105799;1269;61216;-82
2023/09/04 10:14:31;;;;;;;;;;;;;;;23.64;57.75;102364.61;106003;1269;73958;-83
2023/09/04 10:16:59;;;;;;;;;;;;;;;23.69;57.52;102362.98;105940;1270;67138;-81
2023/09/04 10:19:28;;;;;;;;;;;;;;;23.73;57.45;102360.98;105906;1270;72837;-82
2023/09/04 10:21:57;;;;;;;;;;;;;;;23.84;57.38;102361.50;105842;1270;124416;-81
2023/09/04 10:24:26;;;;;;;;;;;;;;;23.92;57.20;102362.55;105708;1275;62035;-84
2023/09/04 10:27:13;;;;;;;;;;;;;;;24.00;57.24;102360.71;105657;1270;124327;-83
2023/09/04 10:29:46;;;;;;;;;;;;;;;24.11;57.17;102356.89;105921;1270;64918;-83
2023/09/04 10:32:13;;;;;;;;;;;;;;;24.19;56.98;102354.52;105764;1276;71421;-84
2023/09/04 10:34:40;;;;;;;;;;;;;;;24.34;57.18;102356.56;105681;1269;124262;-84
2023/09/04 10:37:09;;;;;;;;;;;;;;;24.57;56.99;102354.80;105848;1268;61253;-79
2023/09/04 10:39:37;;;;;;;;;;;;;;;24.81;56.91;102356.41;105868;1270;124175;-82
2023/09/04 10:42:04;;;;;;;;;;;;;;;24.97;56.63;102352.50;105865;1270;66303;-81
2023/09/04 10:44:43;;;;;;;;;;;;;;;25.11;56.46;102356.85;105748;1271;72725;-81
2023/09/04 10:47:10;;;;;;;;;;;;;;;25.32;56.66;102359.36;105950;1270;61303;-82
2023/09/04 10:49:36;;;;;;;;;;;;;;;25.55;56.38;102362.52;106028;1270;61483;-81
2023/09/04 10:52:03;;;;;;;;;;;;;;;25.68;55.94;102365.59;105812;1273;124761;-80
2023/09/04 10:54:30;;;;;;;;;;;;;;;25.69;55.31;102365.40;105762;1271;68233;-79
2023/09/04 10:56:57;;;;;;;;;;;;;;;25.67;55.28;102365.04;105849;1269;124393;-81
2023/09/04 10:59:24;;;;;;;;;;;;;;;25.72;55.36;102361.95;105875;1270;61326;-80
2023/09/04 11:01:50;;;;;;;;;;;;;;;25.80;55.26;102361.45;105898;1270;61257;-78
2023/09/04 11:04:33;;;;;;;;;;;;;;;25.91;55.27;102358.66;105785;1273;124332;-78
2023/09/04 11:07:18;;;;;;;;;;;;;;;26.01;55.05;102357.27;105902;1270;66754;-79
2023/09/04 11:09:45;;;;;;;;;;;;;;;26.06;54.75;102357.02;105799;1270;124209;-79
2023/09/04 11:12:17;;;;;;;;;;;;;;;26.13;54.69;102356.02;105774;1271;61378;-78
2023/09/04 11:14:45;;;;;;;;;;;;;;;26.24;54.41;102356.05;105836;1271;124346;-78
2023/09/04 11:17:14;;;;;;;;;;;;;;;26.26;54.17;102355.11;105989;1269;74440;-78
2023/09/04 11:19:40;;;;;;;;;;;;;;;26.27;53.89;102353.30;105875;1270;64725;-79
2023/09/04 11:22:33;;;;;;;;;;;;;;;26.25;53.68;102355.66;105861;1270;125087;-80
2023/09/04 11:25:08;;;;;;;;;;;;;;;26.16;53.08;102357.05;105842;1269;59297;-84
2023/09/04 11:27:34;;;;;;;;;;;;;;;26.09;53.09;102356.80;105651;1270;124811;-79
2023/09/04 11:30:04;;;;;;;;;;;;;;;25.99;52.96;102356.40;105274;1270;73190;-82
2023/09/04 11:32:35;;;;;;;;;;;;;;;25.86;52.93;102358.16;105770;1273;66745;-83
2023/09/04 11:35:02;;;;;;;;;;;;;;;25.93;53.26;102353.05;105554;1270;124090;-84
2023/09/04 11:37:33;;;;;;;;;;;;;;;26.03;53.20;102347.54;105683;1268;61313;-84
2023/09/04 11:40:00;;;;;;;;;;;;;;;26.04;53.10;102346.80;105682;1271;124695;-83
2023/09/04 11:42:29;;;;;;;;;;;;;;;25.86;52.67;102345.21;105831;1271;73162;-81
2023/09/04 11:44:55;;;;;;;;;;;;;;;25.67;52.68;102345.11;105600;1270;124553;-83
2023/09/04 11:47:22;;;;;;;;;;;;;;;25.56;53.12;102344.33;105807;1270;70711;-83
2023/09/04 11:49:49;;;;;;;;;;;;;;;25.50;53.21;102341.54;105929;1270;61162;-83
2023/09/04 11:52:18;;;;;;;;;;;;;;;25.46;53.47;102351.83;105688;1269;125192;-83
2023/09/04 11:54:45;;;;;;;;;;;;;;;25.44;53.42;102349.52;105924;1272;73471;-82
2023/09/04 11:57:11;;;;;;;;;;;;;;;25.42;53.19;102353.86;105862;1271;124477;-83
2023/09/04 11:59:38;;;;;;;;;;;;;;;25.43;53.13;102356.89;105887;1271;72473;-83
2023/09/04 12:02:05;;;;;;;;;;;;;;;25.50;53.14;102361.13;105986;1269;61282;-83
2023/09/04 12:04:33;;;;;;;;;;;;;;;25.61;53.11;102359.38;105627;1268;124934;-82
2023/09/04 12:07:00;;;;;;;;;;;;;;;25.67;53.05;102356.61;105682;1270;74579;-82
2023/09/04 12:09:26;;;;;;;;;;;;;;;25.71;52.87;102357.10;105693;1268;124433;-82
2023/09/04 12:11:53;;;;;;;;;;;;;;;25.74;53.02;102360.65;105791;1270;61698;-82
2023/09/04 12:14:20;;;;;;;;;;;;;;;25.71;52.89;102361.40;105797;1270;61400;-82
2023/09/04 12:16:47;;;;;;;;;;;;;;;25.72;52.93;102364.63;105648;1270;124146;-82
2023/09/04 12:19:22;;;;;;;;;;;;;;;25.79;52.83;102367.97;105962;1270;74830;-82
2023/09/04 12:21:48;;;;;;;;;;;;;;;25.80;52.63;102367.77;105782;1272;124166;-82
2023/09/04 12:24:15;;;;;;;;;;;;;;;25.86;52.66;102366.98;105834;1268;71549;-83
2023/09/04 12:26:42;;;;;;;;;;;;;;;25.96;52.67;102368.13;105828;1269;124478;-80
2023/09/04 12:29:20;;;;;;;;;;;;;;;26.05;52.33;102368.73;105691;1270;61269;-79